sensor_id;sensor_type;location;lat;lon;timestamp;P1;P2;P0
56175;PMS5003;63065;51.082;17.016;2023-01-28T00:00:24;71;65;
56175;PMS5003;63065;51.082;17.016;2023-01-28T00:02:50;67;59;
56175;PMS5003;63065;51.082;17.016;2023-01-28T00:05:15;66;60;
56175;PMS5003;63065;51.082;17.016;2023-01-28T00:07:41;72;66;
56175;PMS5003;63065;51.082;17.016;2023-01-28T00:10:07;68;56;
56175;PMS5003;63065;51.082;17.016;2023-01-28T00:12:32;61;57;
56175;PMS5003;63065;51.082;17.016;2023-01-28T00:14:57;60;57;
56175;PMS5003;63065;51.082;17.016;2023-01-28T00:17:23;60;56;
56175;PMS5003;63065;51.082;17.016;2023-01-28T00:19:49;63;52;
56175;PMS5003;63065;51.082;17.016;2023-01-28T00:22:14;61;55;
56175;PMS5003;63065;51.082;17.016;2023-01-28T00:24:39;56;54;
56175;PMS5003;63065;51.082;17.016;2023-01-28T00:27:05;54;50;
56175;PMS5003;63065;51.082;17.016;2023-01-28T00:29:31;72;61;
56175;PMS5003;63065;51.082;17.016;2023-01-28T00:31:55;67;60;
56175;PMS5003;63065;51.082;17.016;2023-01-28T00:34:21;53;51;
56175;PMS5003;63065;51.082;17.016;2023-01-28T00:36:46;58;55;
56175;PMS5003;63065;51.082;17.016;2023-01-28T00:39:13;58;50;
56175;PMS5003;63065;51.082;17.016;2023-01-28T00:41:38;53;47;
56175;PMS5003;63065;51.082;17.016;2023-01-28T00:44:03;57;53;
56175;PMS5003;63065;51.082;17.016;2023-01-28T00:46:28;60;50;
56175;PMS5003;63065;51.082;17.016;2023-01-28T00:48:54;60;51;
56175;PMS5003;63065;51.082;17.016;2023-01-28T00:51:19;60;55;
56175;PMS5003;63065;51.082;17.016;2023-01-28T00:53:45;59;49;
56175;PMS5003;63065;51.082;17.016;2023-01-28T00:56:11;52;49;
56175;PMS5003;63065;51.082;17.016;2023-01-28T00:58:36;56;54;
56175;PMS5003;63065;51.082;17.016;2023-01-28T01:01:06;58;51;
56175;PMS5003;63065;51.082;17.016;2023-01-28T01:03:28;61;58;
56175;PMS5003;63065;51.082;17.016;2023-01-28T01:05:56;56;53;
56175;PMS5003;63065;51.082;17.016;2023-01-28T01:08:19;67;61;
56175;PMS5003;63065;51.082;17.016;2023-01-28T01:10:44;58;50;
56175;PMS5003;63065;51.082;17.016;2023-01-28T01:13:09;59;54;
56175;PMS5003;63065;51.082;17.016;2023-01-28T01:15:35;58;50;
56175;PMS5003;63065;51.082;17.016;2023-01-28T01:18:00;66;56;
56175;PMS5003;63065;51.082;17.016;2023-01-28T01:20:27;70;57;
56175;PMS5003;63065;51.082;17.016;2023-01-28T01:22:51;65;59;
56175;PMS5003;63065;51.082;17.016;2023-01-28T01:25:17;63;50;
56175;PMS5003;63065;51.082;17.016;2023-01-28T01:27:47;61;56;
56175;PMS5003;63065;51.082;17.016;2023-01-28T01:30:08;59;54;
56175;PMS5003;63065;51.082;17.016;2023-01-28T01:32:33;60;50;
56175;PMS5003;63065;51.082;17.016;2023-01-28T01:34:58;59;57;
56175;PMS5003;63065;51.082;17.016;2023-01-28T01:37:23;62;54;
56175;PMS5003;63065;51.082;17.016;2023-01-28T01:39:48;52;49;
56175;PMS5003;63065;51.082;17.016;2023-01-28T01:42:14;51;47;
56175;PMS5003;63065;51.082;17.016;2023-01-28T01:47:05;57;47;
56175;PMS5003;63065;51.082;17.016;2023-01-28T01:49:30;48;44;
56175;PMS5003;63065;51.082;17.016;2023-01-28T01:51:57;67;58;
56175;PMS5003;63065;51.082;17.016;2023-01-28T01:54:22;56;51;
56175;PMS5003;63065;51.082;17.016;2023-01-28T01:56:47;56;54;
56175;PMS5003;63065;51.082;17.016;2023-01-28T01:59:13;54;48;
56175;PMS5003;63065;51.082;17.016;2023-01-28T02:01:38;59;50;
56175;PMS5003;63065;51.082;17.016;2023-01-28T02:04:04;61;53;
56175;PMS5003;63065;51.082;17.016;2023-01-28T02:06:30;53;49;
56175;PMS5003;63065;51.082;17.016;2023-01-28T02:08:55;49;47;
56175;PMS5003;63065;51.082;17.016;2023-01-28T02:11:20;71;63;
56175;PMS5003;63065;51.082;17.016;2023-01-28T02:13:46;59;57;
56175;PMS5003;63065;51.082;17.016;2023-01-28T02:16:11;66;58;
56175;PMS5003;63065;51.082;17.016;2023-01-28T02:18:37;51;47;
56175;PMS5003;63065;51.082;17.016;2023-01-28T02:23:30;51;46;
56175;PMS5003;63065;51.082;17.016;2023-01-28T02:28:22;62;53;
56175;PMS5003;63065;51.082;17.016;2023-01-28T02:30:45;50;49;
56175;PMS5003;63065;51.082;17.016;2023-01-28T02:33:10;65;55;
56175;PMS5003;63065;51.082;17.016;2023-01-28T02:35:36;56;50;
56175;PMS5003;63065;51.082;17.016;2023-01-28T02:38:02;53;47;
56175;PMS5003;63065;51.082;17.016;2023-01-28T02:40:27;49;44;
56175;PMS5003;63065;51.082;17.016;2023-01-28T02:42:51;62;55;
56175;PMS5003;63065;51.082;17.016;2023-01-28T02:45:18;58;50;
56175;PMS5003;63065;51.082;17.016;2023-01-28T02:47:42;57;46;
56175;PMS5003;63065;51.082;17.016;2023-01-28T02:50:09;60;47;
56175;PMS5003;63065;51.082;17.016;2023-01-28T02:52:37;53;48;
56175;PMS5003;63065;51.082;17.016;2023-01-28T02:54:59;53;46;
56175;PMS5003;63065;51.082;17.016;2023-01-28T02:57:27;54;48;
56175;PMS5003;63065;51.082;17.016;2023-01-28T02:59:51;53;42;
56175;PMS5003;63065;51.082;17.016;2023-01-28T03:02:16;53;53;
56175;PMS5003;63065;51.082;17.016;2023-01-28T03:04:42;62;55;
56175;PMS5003;63065;51.082;17.016;2023-01-28T03:07:05;43;39;
56175;PMS5003;63065;51.082;17.016;2023-01-28T03:09:30;46;41;
56175;PMS5003;63065;51.082;17.016;2023-01-28T03:11:56;54;53;
56175;PMS5003;63065;51.082;17.016;2023-01-28T03:14:21;57;53;
56175;PMS5003;63065;51.082;17.016;2023-01-28T03:16:47;54;50;
56175;PMS5003;63065;51.082;17.016;2023-01-28T03:19:12;58;52;
56175;PMS5003;63065;51.082;17.016;2023-01-28T03:21:39;55;46;
56175;PMS5003;63065;51.082;17.016;2023-01-28T03:24:05;58;47;
56175;PMS5003;63065;51.082;17.016;2023-01-28T03:26:29;47;45;
56175;PMS5003;63065;51.082;17.016;2023-01-28T03:28:55;63;55;
56175;PMS5003;63065;51.082;17.016;2023-01-28T03:31:20;68;59;
56175;PMS5003;63065;51.082;17.016;2023-01-28T03:33:45;57;49;
56175;PMS5003;63065;51.082;17.016;2023-01-28T03:36:10;66;54;
56175;PMS5003;63065;51.082;17.016;2023-01-28T03:38:36;65;54;
56175;PMS5003;63065;51.082;17.016;2023-01-28T03:41:02;61;59;
56175;PMS5003;63065;51.082;17.016;2023-01-28T03:43:26;64;56;
56175;PMS5003;63065;51.082;17.016;2023-01-28T03:45:52;62;53;
56175;PMS5003;63065;51.082;17.016;2023-01-28T03:48:18;55;49;
56175;PMS5003;63065;51.082;17.016;2023-01-28T03:50:43;59;55;
56175;PMS5003;63065;51.082;17.016;2023-01-28T03:53:09;55;51;
56175;PMS5003;63065;51.082;17.016;2023-01-28T03:55:34;52;50;
56175;PMS5003;63065;51.082;17.016;2023-01-28T03:57:59;54;50;
56175;PMS5003;63065;51.082;17.016;2023-01-28T04:00:25;61;55;
56175;PMS5003;63065;51.082;17.016;2023-01-28T04:02:51;66;56;
56175;PMS5003;63065;51.082;17.016;2023-01-28T04:05:16;65;59;
56175;PMS5003;63065;51.082;17.016;2023-01-28T04:07:41;70;59;
56175;PMS5003;63065;51.082;17.016;2023-01-28T04:10:07;64;58;
56175;PMS5003;63065;51.082;17.016;2023-01-28T04:12:32;75;63;
56175;PMS5003;63065;51.082;17.016;2023-01-28T04:14:57;59;52;
56175;PMS5003;63065;51.082;17.016;2023-01-28T04:17:22;62;56;
56175;PMS5003;63065;51.082;17.016;2023-01-28T04:19:48;67;67;
56175;PMS5003;63065;51.082;17.016;2023-01-28T04:22:13;61;56;
56175;PMS5003;63065;51.082;17.016;2023-01-28T04:24:38;67;56;
56175;PMS5003;63065;51.082;17.016;2023-01-28T04:27:03;69;55;
56175;PMS5003;63065;51.082;17.016;2023-01-28T04:29:29;60;54;
56175;PMS5003;63065;51.082;17.016;2023-01-28T04:31:54;65;57;
56175;PMS5003;63065;51.082;17.016;2023-01-28T04:34:19;75;61;
56175;PMS5003;63065;51.082;17.016;2023-01-28T04:36:45;62;60;
56175;PMS5003;63065;51.082;17.016;2023-01-28T04:39:16;68;64;
56175;PMS5003;63065;51.082;17.016;2023-01-28T04:41:36;72;64;
56175;PMS5003;63065;51.082;17.016;2023-01-28T04:44:02;64;55;
56175;PMS5003;63065;51.082;17.016;2023-01-28T04:46:28;62;49;
56175;PMS5003;63065;51.082;17.016;2023-01-28T04:48:58;68;58;
56175;PMS5003;63065;51.082;17.016;2023-01-28T04:51:19;55;51;
56175;PMS5003;63065;51.082;17.016;2023-01-28T04:53:44;53;50;
56175;PMS5003;63065;51.082;17.016;2023-01-28T04:56:10;54;47;
56175;PMS5003;63065;51.082;17.016;2023-01-28T04:58:35;59;53;
56175;PMS5003;63065;51.082;17.016;2023-01-28T05:01:01;69;62;
56175;PMS5003;63065;51.082;17.016;2023-01-28T05:03:26;61;55;
56175;PMS5003;63065;51.082;17.016;2023-01-28T05:05:51;74;63;
56175;PMS5003;63065;51.082;17.016;2023-01-28T05:08:17;69;63;
56175;PMS5003;63065;51.082;17.016;2023-01-28T05:10:42;70;60;
56175;PMS5003;63065;51.082;17.016;2023-01-28T05:13:08;63;54;
56175;PMS5003;63065;51.082;17.016;2023-01-28T05:15:34;74;70;
56175;PMS5003;63065;51.082;17.016;2023-01-28T05:17:59;67;62;
56175;PMS5003;63065;51.082;17.016;2023-01-28T05:20:25;61;54;
56175;PMS5003;63065;51.082;17.016;2023-01-28T05:22:50;62;56;
56175;PMS5003;63065;51.082;17.016;2023-01-28T05:25:16;72;64;
56175;PMS5003;63065;51.082;17.016;2023-01-28T05:27:42;69;59;
56175;PMS5003;63065;51.082;17.016;2023-01-28T05:30:12;67;59;
56175;PMS5003;63065;51.082;17.016;2023-01-28T05:32:33;64;60;
56175;PMS5003;63065;51.082;17.016;2023-01-28T05:34:58;76;60;
56175;PMS5003;63065;51.082;17.016;2023-01-28T05:37:24;75;66;
56175;PMS5003;63065;51.082;17.016;2023-01-28T05:39:49;68;61;
56175;PMS5003;63065;51.082;17.016;2023-01-28T05:44:39;81;65;
56175;PMS5003;63065;51.082;17.016;2023-01-28T05:47:05;80;62;
56175;PMS5003;63065;51.082;17.016;2023-01-28T05:49:30;74;63;
56175;PMS5003;63065;51.082;17.016;2023-01-28T05:51:56;68;58;
56175;PMS5003;63065;51.082;17.016;2023-01-28T05:54:27;78;66;
56175;PMS5003;63065;51.082;17.016;2023-01-28T05:56:47;65;60;
56175;PMS5003;63065;51.082;17.016;2023-01-28T05:59:12;77;66;
56175;PMS5003;63065;51.082;17.016;2023-01-28T06:01:38;66;61;
56175;PMS5003;63065;51.082;17.016;2023-01-28T06:04:04;70;66;
56175;PMS5003;63065;51.082;17.016;2023-01-28T06:06:30;55;53;
56175;PMS5003;63065;51.082;17.016;2023-01-28T06:08:55;61;58;
56175;PMS5003;63065;51.082;17.016;2023-01-28T06:11:20;61;59;
56175;PMS5003;63065;51.082;17.016;2023-01-28T06:13:46;63;59;
56175;PMS5003;63065;51.082;17.016;2023-01-28T06:16:11;66;59;
56175;PMS5003;63065;51.082;17.016;2023-01-28T06:18:42;69;59;
56175;PMS5003;63065;51.082;17.016;2023-01-28T06:21:02;76;68;
56175;PMS5003;63065;51.082;17.016;2023-01-28T06:23:27;66;59;
56175;PMS5003;63065;51.082;17.016;2023-01-28T06:25:58;71;62;
56175;PMS5003;63065;51.082;17.016;2023-01-28T06:28:18;66;60;
56175;PMS5003;63065;51.082;17.016;2023-01-28T06:30:46;63;58;
56175;PMS5003;63065;51.082;17.016;2023-01-28T06:33:10;69;60;
56175;PMS5003;63065;51.082;17.016;2023-01-28T06:35:36;55;50;
56175;PMS5003;63065;51.082;17.016;2023-01-28T06:38:01;65;58;
56175;PMS5003;63065;51.082;17.016;2023-01-28T06:40:26;61;53;
56175;PMS5003;63065;51.082;17.016;2023-01-28T06:42:52;60;54;
56175;PMS5003;63065;51.082;17.016;2023-01-28T06:45:17;64;53;
56175;PMS5003;63065;51.082;17.016;2023-01-28T06:47:42;61;55;
56175;PMS5003;63065;51.082;17.016;2023-01-28T06:50:08;63;54;
56175;PMS5003;63065;51.082;17.016;2023-01-28T06:52:33;55;52;
56175;PMS5003;63065;51.082;17.016;2023-01-28T06:57:24;55;48;
56175;PMS5003;63065;51.082;17.016;2023-01-28T06:59:49;68;55;
56175;PMS5003;63065;51.082;17.016;2023-01-28T07:02:14;66;53;
56175;PMS5003;63065;51.082;17.016;2023-01-28T07:04:39;58;51;
56175;PMS5003;63065;51.082;17.016;2023-01-28T07:07:05;60;52;
56175;PMS5003;63065;51.082;17.016;2023-01-28T07:09:30;65;52;
56175;PMS5003;63065;51.082;17.016;2023-01-28T07:11:56;50;48;
56175;PMS5003;63065;51.082;17.016;2023-01-28T07:14:22;54;47;
56175;PMS5003;63065;51.082;17.016;2023-01-28T07:16:47;54;45;
56175;PMS5003;63065;51.082;17.016;2023-01-28T07:19:13;51;46;
56175;PMS5003;63065;51.082;17.016;2023-01-28T07:21:38;56;49;
56175;PMS5003;63065;51.082;17.016;2023-01-28T07:24:05;61;51;
56175;PMS5003;63065;51.082;17.016;2023-01-28T07:26:30;52;43;
56175;PMS5003;63065;51.082;17.016;2023-01-28T07:31:21;52;46;
56175;PMS5003;63065;51.082;17.016;2023-01-28T07:33:47;60;53;
56175;PMS5003;63065;51.082;17.016;2023-01-28T07:36:12;60;51;
56175;PMS5003;63065;51.082;17.016;2023-01-28T07:38:38;52;47;
56175;PMS5003;63065;51.082;17.016;2023-01-28T07:41:03;54;46;
56175;PMS5003;63065;51.082;17.016;2023-01-28T07:43:29;49;49;
56175;PMS5003;63065;51.082;17.016;2023-01-28T07:45:54;62;54;
56175;PMS5003;63065;51.082;17.016;2023-01-28T07:48:20;63;54;
56175;PMS5003;63065;51.082;17.016;2023-01-28T07:50:45;61;50;
56175;PMS5003;63065;51.082;17.016;2023-01-28T07:53:11;61;60;
56175;PMS5003;63065;51.082;17.016;2023-01-28T07:55:36;61;54;
56175;PMS5003;63065;51.082;17.016;2023-01-28T07:58:02;52;48;
56175;PMS5003;63065;51.082;17.016;2023-01-28T08:00:28;60;53;
56175;PMS5003;63065;51.082;17.016;2023-01-28T08:02:54;63;58;
56175;PMS5003;63065;51.082;17.016;2023-01-28T08:05:18;57;55;
56175;PMS5003;63065;51.082;17.016;2023-01-28T08:07:43;52;43;
56175;PMS5003;63065;51.082;17.016;2023-01-28T08:10:09;50;45;
56175;PMS5003;63065;51.082;17.016;2023-01-28T08:12:34;54;47;
56175;PMS5003;63065;51.082;17.016;2023-01-28T08:14:59;65;60;
56175;PMS5003;63065;51.082;17.016;2023-01-28T08:17:25;55;49;
56175;PMS5003;63065;51.082;17.016;2023-01-28T08:19:50;62;53;
56175;PMS5003;63065;51.082;17.016;2023-01-28T08:22:24;66;61;
56175;PMS5003;63065;51.082;17.016;2023-01-28T08:24:41;63;57;
56175;PMS5003;63065;51.082;17.016;2023-01-28T08:27:07;64;50;
56175;PMS5003;63065;51.082;17.016;2023-01-28T08:29:32;57;51;
56175;PMS5003;63065;51.082;17.016;2023-01-28T08:31:58;51;49;
56175;PMS5003;63065;51.082;17.016;2023-01-28T08:34:23;52;47;
56175;PMS5003;63065;51.082;17.016;2023-01-28T08:36:49;60;54;
56175;PMS5003;63065;51.082;17.016;2023-01-28T08:39:15;59;54;
56175;PMS5003;63065;51.082;17.016;2023-01-28T08:41:40;66;53;
56175;PMS5003;63065;51.082;17.016;2023-01-28T08:44:06;56;49;
56175;PMS5003;63065;51.082;17.016;2023-01-28T08:46:31;60;46;
56175;PMS5003;63065;51.082;17.016;2023-01-28T08:48:56;59;52;
56175;PMS5003;63065;51.082;17.016;2023-01-28T08:51:22;59;50;
56175;PMS5003;63065;51.082;17.016;2023-01-28T08:53:47;58;54;
56175;PMS5003;63065;51.082;17.016;2023-01-28T08:56:13;54;48;
56175;PMS5003;63065;51.082;17.016;2023-01-28T08:58:38;58;54;
56175;PMS5003;63065;51.082;17.016;2023-01-28T09:01:04;66;57;
56175;PMS5003;63065;51.082;17.016;2023-01-28T09:03:29;58;52;
56175;PMS5003;63065;51.082;17.016;2023-01-28T09:05:58;55;49;
56175;PMS5003;63065;51.082;17.016;2023-01-28T09:08:21;57;55;
56175;PMS5003;63065;51.082;17.016;2023-01-28T09:10:46;59;55;
56175;PMS5003;63065;51.082;17.016;2023-01-28T09:13:12;60;52;
56175;PMS5003;63065;51.082;17.016;2023-01-28T09:15:36;57;50;
56175;PMS5003;63065;51.082;17.016;2023-01-28T09:18:02;69;55;
56175;PMS5003;63065;51.082;17.016;2023-01-28T09:20:27;61;56;
56175;PMS5003;63065;51.082;17.016;2023-01-28T09:22:53;59;55;
56175;PMS5003;63065;51.082;17.016;2023-01-28T09:25:19;62;52;
56175;PMS5003;63065;51.082;17.016;2023-01-28T09:27:44;59;57;
56175;PMS5003;63065;51.082;17.016;2023-01-28T09:30:10;47;44;
56175;PMS5003;63065;51.082;17.016;2023-01-28T09:32:35;60;53;
56175;PMS5003;63065;51.082;17.016;2023-01-28T09:35:01;62;48;
56175;PMS5003;63065;51.082;17.016;2023-01-28T09:37:26;60;57;
56175;PMS5003;63065;51.082;17.016;2023-01-28T09:39:52;48;47;
56175;PMS5003;63065;51.082;17.016;2023-01-28T09:42:22;57;45;
56175;PMS5003;63065;51.082;17.016;2023-01-28T09:44:45;42;37;
56175;PMS5003;63065;51.082;17.016;2023-01-28T09:47:11;50;43;
56175;PMS5003;63065;51.082;17.016;2023-01-28T09:49:34;43;39;
56175;PMS5003;63065;51.082;17.016;2023-01-28T09:51:58;55;45;
56175;PMS5003;63065;51.082;17.016;2023-01-28T09:54:28;47;41;
56175;PMS5003;63065;51.082;17.016;2023-01-28T09:56:50;46;43;
56175;PMS5003;63065;51.082;17.016;2023-01-28T09:59:16;51;44;
56175;PMS5003;63065;51.082;17.016;2023-01-28T10:01:41;46;45;
56175;PMS5003;63065;51.082;17.016;2023-01-28T10:04:11;47;42;
56175;PMS5003;63065;51.082;17.016;2023-01-28T10:06:33;49;45;
56175;PMS5003;63065;51.082;17.016;2023-01-28T10:09:05;50;45;
56175;PMS5003;63065;51.082;17.016;2023-01-28T10:11:23;49;39;
56175;PMS5003;63065;51.082;17.016;2023-01-28T10:13:48;41;40;
56175;PMS5003;63065;51.082;17.016;2023-01-28T10:16:16;56;46;
56175;PMS5003;63065;51.082;17.016;2023-01-28T10:18:39;60;51;
56175;PMS5003;63065;51.082;17.016;2023-01-28T10:21:05;49;43;
56175;PMS5003;63065;51.082;17.016;2023-01-28T10:23:30;53;45;
56175;PMS5003;63065;51.082;17.016;2023-01-28T10:25:55;60;51;
56175;PMS5003;63065;51.082;17.016;2023-01-28T10:28:21;51;42;
56175;PMS5003;63065;51.082;17.016;2023-01-28T10:30:45;47;43;
56175;PMS5003;63065;51.082;17.016;2023-01-28T10:33:12;51;41;
56175;PMS5003;63065;51.082;17.016;2023-01-28T10:35:37;47;44;
56175;PMS5003;63065;51.082;17.016;2023-01-28T10:38:03;54;50;
56175;PMS5003;63065;51.082;17.016;2023-01-28T10:40:26;50;44;
56175;PMS5003;63065;51.082;17.016;2023-01-28T10:42:52;54;47;
56175;PMS5003;63065;51.082;17.016;2023-01-28T10:45:18;51;44;
56175;PMS5003;63065;51.082;17.016;2023-01-28T10:47:43;65;53;
56175;PMS5003;63065;51.082;17.016;2023-01-28T10:50:09;50;48;
56175;PMS5003;63065;51.082;17.016;2023-01-28T10:52:33;49;45;
56175;PMS5003;63065;51.082;17.016;2023-01-28T10:55:00;51;47;
56175;PMS5003;63065;51.082;17.016;2023-01-28T10:57:25;43;42;
56175;PMS5003;63065;51.082;17.016;2023-01-28T10:59:50;47;47;
56175;PMS5003;63065;51.082;17.016;2023-01-28T11:04:41;46;45;
56175;PMS5003;63065;51.082;17.016;2023-01-28T11:09:32;50;48;
56175;PMS5003;63065;51.082;17.016;2023-01-28T11:11:57;41;32;
56175;PMS5003;63065;51.082;17.016;2023-01-28T11:14:23;40;40;
56175;PMS5003;63065;51.082;17.016;2023-01-28T11:16:48;43;35;
56175;PMS5003;63065;51.082;17.016;2023-01-28T11:19:13;51;45;
56175;PMS5003;63065;51.082;17.016;2023-01-28T11:21:38;41;35;
56175;PMS5003;63065;51.082;17.016;2023-01-28T11:24:05;42;40;
56175;PMS5003;63065;51.082;17.016;2023-01-28T11:26:31;41;39;
56175;PMS5003;63065;51.082;17.016;2023-01-28T11:28:55;41;35;
56175;PMS5003;63065;51.082;17.016;2023-01-28T11:31:21;37;36;
56175;PMS5003;63065;51.082;17.016;2023-01-28T11:33:48;41;36;
56175;PMS5003;63065;51.082;17.016;2023-01-28T11:36:13;37;36;
56175;PMS5003;63065;51.082;17.016;2023-01-28T11:38:45;39;36;
56175;PMS5003;63065;51.082;17.016;2023-01-28T11:41:03;32;29;
56175;PMS5003;63065;51.082;17.016;2023-01-28T11:43:30;39;36;
56175;PMS5003;63065;51.082;17.016;2023-01-28T11:45:55;38;36;
56175;PMS5003;63065;51.082;17.016;2023-01-28T11:48:23;39;33;
56175;PMS5003;63065;51.082;17.016;2023-01-28T11:50:45;33;32;
56175;PMS5003;63065;51.082;17.016;2023-01-28T11:53:16;38;36;
56175;PMS5003;63065;51.082;17.016;2023-01-28T11:55:36;32;30;
56175;PMS5003;63065;51.082;17.016;2023-01-28T11:58:03;37;33;
56175;PMS5003;63065;51.082;17.016;2023-01-28T12:00:29;28;28;
56175;PMS5003;63065;51.082;17.016;2023-01-28T12:02:53;33;31;
56175;PMS5003;63065;51.082;17.016;2023-01-28T12:05:23;29;29;
56175;PMS5003;63065;51.082;17.016;2023-01-28T12:07:44;26;25;
56175;PMS5003;63065;51.082;17.016;2023-01-28T12:10:10;30;25;
56175;PMS5003;63065;51.082;17.016;2023-01-28T12:12:38;29;29;
56175;PMS5003;63065;51.082;17.016;2023-01-28T12:15:03;34;29;
56175;PMS5003;63065;51.082;17.016;2023-01-28T12:17:26;29;25;
56175;PMS5003;63065;51.082;17.016;2023-01-28T12:19:53;31;29;
56175;PMS5003;63065;51.082;17.016;2023-01-28T12:22:21;33;28;
56175;PMS5003;63065;51.082;17.016;2023-01-28T12:24:43;34;31;
56175;PMS5003;63065;51.082;17.016;2023-01-28T12:27:09;30;26;
56175;PMS5003;63065;51.082;17.016;2023-01-28T12:29:33;34;32;
56175;PMS5003;63065;51.082;17.016;2023-01-28T12:32:02;39;35;
56175;PMS5003;63065;51.082;17.016;2023-01-28T12:34:27;32;28;
56175;PMS5003;63065;51.082;17.016;2023-01-28T12:36:50;36;32;
56175;PMS5003;63065;51.082;17.016;2023-01-28T12:39:16;37;33;
56175;PMS5003;63065;51.082;17.016;2023-01-28T12:41:39;37;32;
56175;PMS5003;63065;51.082;17.016;2023-01-28T12:44:04;36;32;
56175;PMS5003;63065;51.082;17.016;2023-01-28T12:46:34;36;32;
56175;PMS5003;63065;51.082;17.016;2023-01-28T12:48:57;32;29;
56175;PMS5003;63065;51.082;17.016;2023-01-28T12:51:21;35;33;
56175;PMS5003;63065;51.082;17.016;2023-01-28T12:53:46;30;30;
56175;PMS5003;63065;51.082;17.016;2023-01-28T12:56:12;39;34;
56175;PMS5003;63065;51.082;17.016;2023-01-28T12:58:38;37;32;
56175;PMS5003;63065;51.082;17.016;2023-01-28T13:01:03;27;27;
56175;PMS5003;63065;51.082;17.016;2023-01-28T13:03:29;30;28;
56175;PMS5003;63065;51.082;17.016;2023-01-28T13:05:54;31;30;
56175;PMS5003;63065;51.082;17.016;2023-01-28T13:08:21;30;30;
56175;PMS5003;63065;51.082;17.016;2023-01-28T13:10:44;37;31;
56175;PMS5003;63065;51.082;17.016;2023-01-28T13:13:12;26;25;
56175;PMS5003;63065;51.082;17.016;2023-01-28T13:15:35;34;30;
56175;PMS5003;63065;51.082;17.016;2023-01-28T13:18:01;33;31;
56175;PMS5003;63065;51.082;17.016;2023-01-28T13:20:30;29;29;
56175;PMS5003;63065;51.082;17.016;2023-01-28T13:22:58;30;29;
56175;PMS5003;63065;51.082;17.016;2023-01-28T13:25:19;26;24;
56175;PMS5003;63065;51.082;17.016;2023-01-28T13:27:41;30;30;
56175;PMS5003;63065;51.082;17.016;2023-01-28T13:32:33;32;30;
56175;PMS5003;63065;51.082;17.016;2023-01-28T13:34:59;23;23;
56175;PMS5003;63065;51.082;17.016;2023-01-28T13:37:26;24;24;
56175;PMS5003;63065;51.082;17.016;2023-01-28T13:39:50;28;25;
56175;PMS5003;63065;51.082;17.016;2023-01-28T13:44:40;29;29;
56175;PMS5003;63065;51.082;17.016;2023-01-28T13:49:32;22;20;
56175;PMS5003;63065;51.082;17.016;2023-01-28T13:51:58;25;24;
56175;PMS5003;63065;51.082;17.016;2023-01-28T13:54:22;24;21;
56175;PMS5003;63065;51.082;17.016;2023-01-28T13:56:51;23;21;
56175;PMS5003;63065;51.082;17.016;2023-01-28T13:59:20;21;19;
56175;PMS5003;63065;51.082;17.016;2023-01-28T14:04:11;22;19;
56175;PMS5003;63065;51.082;17.016;2023-01-28T14:08:59;16;15;
56175;PMS5003;63065;51.082;17.016;2023-01-28T14:13:52;23;20;
56175;PMS5003;63065;51.082;17.016;2023-01-28T14:16:13;23;23;
56175;PMS5003;63065;51.082;17.016;2023-01-28T14:18:38;26;26;
56175;PMS5003;63065;51.082;17.016;2023-01-28T14:21:03;25;25;
56175;PMS5003;63065;51.082;17.016;2023-01-28T14:23:27;21;19;
56175;PMS5003;63065;51.082;17.016;2023-01-28T14:25:57;19;14;
56175;PMS5003;63065;51.082;17.016;2023-01-28T14:28:18;27;20;
56175;PMS5003;63065;51.082;17.016;2023-01-28T14:30:46;18;17;
56175;PMS5003;63065;51.082;17.016;2023-01-28T14:33:09;19;14;
56175;PMS5003;63065;51.082;17.016;2023-01-28T14:35:34;18;14;
56175;PMS5003;63065;51.082;17.016;2023-01-28T14:38:00;15;13;
56175;PMS5003;63065;51.082;17.016;2023-01-28T14:40:27;15;13;
56175;PMS5003;63065;51.082;17.016;2023-01-28T14:42:52;14;13;
56175;PMS5003;63065;51.082;17.016;2023-01-28T14:47:46;18;16;
56175;PMS5003;63065;51.082;17.016;2023-01-28T14:50:13;13;13;
56175;PMS5003;63065;51.082;17.016;2023-01-28T14:52:39;21;15;
56175;PMS5003;63065;51.082;17.016;2023-01-28T14:55:00;14;14;
56175;PMS5003;63065;51.082;17.016;2023-01-28T14:57:29;16;15;
56175;PMS5003;63065;51.082;17.016;2023-01-28T14:59:50;20;17;
56175;PMS5003;63065;51.082;17.016;2023-01-28T15:02:17;16;16;
56175;PMS5003;63065;51.082;17.016;2023-01-28T15:04:40;14;12;
56175;PMS5003;63065;51.082;17.016;2023-01-28T15:09:31;13;11;
56175;PMS5003;63065;51.082;17.016;2023-01-28T15:11:56;12;12;
56175;PMS5003;63065;51.082;17.016;2023-01-28T15:14:24;19;14;
56175;PMS5003;63065;51.082;17.016;2023-01-28T15:16:48;18;15;
56175;PMS5003;63065;51.082;17.016;2023-01-28T15:19:12;16;14;
56175;PMS5003;63065;51.082;17.016;2023-01-28T15:21:38;22;20;
56175;PMS5003;63065;51.082;17.016;2023-01-28T15:24:04;19;19;
56175;PMS5003;63065;51.082;17.016;2023-01-28T15:26:30;13;13;
56175;PMS5003;63065;51.082;17.016;2023-01-28T15:28:54;22;22;
56175;PMS5003;63065;51.082;17.016;2023-01-28T15:31:20;17;14;
56175;PMS5003;63065;51.082;17.016;2023-01-28T15:33:45;18;18;
56175;PMS5003;63065;51.082;17.016;2023-01-28T15:36:10;17;17;
56175;PMS5003;63065;51.082;17.016;2023-01-28T15:38:35;20;20;
56175;PMS5003;63065;51.082;17.016;2023-01-28T15:41:00;29;26;
56175;PMS5003;63065;51.082;17.016;2023-01-28T15:43:26;29;28;
56175;PMS5003;63065;51.082;17.016;2023-01-28T15:45:51;24;23;
56175;PMS5003;63065;51.082;17.016;2023-01-28T15:48:16;22;22;
56175;PMS5003;63065;51.082;17.016;2023-01-28T15:50:42;29;27;
56175;PMS5003;63065;51.082;17.016;2023-01-28T15:53:07;23;22;
56175;PMS5003;63065;51.082;17.016;2023-01-28T15:55:34;29;25;
56175;PMS5003;63065;51.082;17.016;2023-01-28T16:00:24;27;22;
56175;PMS5003;63065;51.082;17.016;2023-01-28T16:02:49;27;26;
56175;PMS5003;63065;51.082;17.016;2023-01-28T16:07:42;29;29;
56175;PMS5003;63065;51.082;17.016;2023-01-28T16:10:04;26;24;
56175;PMS5003;63065;51.082;17.016;2023-01-28T16:12:29;29;26;
56175;PMS5003;63065;51.082;17.016;2023-01-28T16:14:55;27;27;
56175;PMS5003;63065;51.082;17.016;2023-01-28T16:17:20;29;27;
56175;PMS5003;63065;51.082;17.016;2023-01-28T16:19:46;31;30;
56175;PMS5003;63065;51.082;17.016;2023-01-28T16:22:17;25;25;
56175;PMS5003;63065;51.082;17.016;2023-01-28T16:24:42;37;34;
56175;PMS5003;63065;51.082;17.016;2023-01-28T16:27:03;34;30;
56175;PMS5003;63065;51.082;17.016;2023-01-28T16:29:28;27;25;
56175;PMS5003;63065;51.082;17.016;2023-01-28T16:31:53;28;28;